createdAt,value
2022-10-31T00:00:03.464Z,0
2022-10-31T00:01:04.087Z,0
2022-10-31T00:02:04.772Z,0
2022-10-31T00:03:05.334Z,0
2022-10-31T00:04:05.947Z,0
2022-10-31T00:05:06.543Z,0
2022-10-31T00:06:07.140Z,0
2022-10-31T00:07:07.735Z,0
2022-10-31T00:08:08.333Z,0
2022-10-31T00:09:08.928Z,0
2022-10-31T00:10:09.526Z,0
2022-10-31T00:11:10.139Z,0
2022-10-31T00:12:10.736Z,0
2022-10-31T00:13:11.405Z,0
2022-10-31T00:14:11.944Z,0
2022-10-31T00:15:12.538Z,0
2022-10-31T00:16:13.133Z,0
2022-10-31T00:17:13.728Z,0
2022-10-31T00:18:14.324Z,0
2022-10-31T00:19:14.919Z,0
2022-10-31T00:20:15.518Z,0
2022-10-31T00:21:16.112Z,0
2022-10-31T00:22:16.711Z,0
2022-10-31T00:23:17.305Z,0
2022-10-31T00:24:17.904Z,0
2022-10-31T00:25:18.498Z,0
2022-10-31T00:26:19.096Z,0
2022-10-31T00:27:19.693Z,0
2022-10-31T00:29:20.885Z,0
2022-10-31T00:30:21.481Z,0
2022-10-31T00:31:22.086Z,0
2022-10-31T00:32:22.673Z,0
2022-10-31T00:33:23.271Z,0
2022-10-31T00:34:23.869Z,0
2022-10-31T00:35:24.467Z,0
2022-10-31T00:36:25.064Z,0
2022-10-31T00:37:25.660Z,0
2022-10-31T00:38:26.257Z,0
2022-10-31T00:39:26.853Z,0
2022-10-31T00:40:27.449Z,0
2022-10-31T00:41:28.065Z,0
2022-10-31T00:42:28.661Z,0
2022-10-31T00:43:29.258Z,0
2022-10-31T00:44:29.855Z,0
2022-10-31T00:45:30.451Z,0
2022-10-31T00:46:31.049Z,0
2022-10-31T00:47:31.649Z,0
2022-10-31T00:48:32.243Z,0
2022-10-31T00:49:32.838Z,0
2022-10-31T00:50:33.434Z,0
2022-10-31T00:51:34.035Z,0
2022-10-31T00:52:34.625Z,0
2022-10-31T00:53:35.226Z,0
2022-10-31T00:54:35.818Z,0
2022-10-31T00:55:36.414Z,0
2022-10-31T00:56:37.015Z,0
2022-10-31T00:57:37.632Z,0
2022-10-31T00:58:38.247Z,0
2022-10-31T00:59:38.846Z,0
2022-10-31T01:00:39.447Z,0
2022-10-31T01:01:40.131Z,0
2022-10-31T01:02:40.847Z,0
2022-10-31T01:03:41.457Z,0
2022-10-31T01:04:42.062Z,0
2022-10-31T01:05:42.651Z,0
2022-10-31T01:06:43.250Z,0
2022-10-31T01:07:43.866Z,0
2022-10-31T01:08:44.471Z,0
2022-10-31T01:09:45.084Z,0
2022-10-31T01:10:45.682Z,0
2022-10-31T01:11:46.279Z,0
2022-10-31T01:12:46.888Z,0
2022-10-31T01:13:47.470Z,0
2022-10-31T01:14:48.065Z,0
2022-10-31T01:15:48.783Z,0
2022-10-31T01:16:49.382Z,0
2022-10-31T01:17:49.979Z,0
2022-10-31T01:18:50.577Z,0
2022-10-31T01:19:51.174Z,0
2022-10-31T01:20:51.773Z,0
2022-10-31T01:21:52.369Z,0
2022-10-31T01:22:52.970Z,0
2022-10-31T01:23:53.567Z,0
2022-10-31T01:24:54.163Z,0
2022-10-31T01:25:54.762Z,0
2022-10-31T01:26:55.359Z,0
2022-10-31T01:27:56.058Z,0
2022-10-31T01:28:56.567Z,0
2022-10-31T01:29:57.164Z,0
2022-10-31T01:30:57.760Z,0
2022-10-31T01:31:58.357Z,0
2022-10-31T01:32:59.376Z,0
2022-10-31T01:34:00.152Z,0
2022-10-31T01:35:00.744Z,0
2022-10-31T01:36:01.341Z,0
2022-10-31T01:37:01.939Z,0
2022-10-31T01:38:02.532Z,0
2022-10-31T01:39:03.150Z,0
2022-10-31T01:40:03.749Z,0
2022-10-31T01:41:04.346Z,0
2022-10-31T01:42:04.944Z,0
2022-10-31T01:43:05.536Z,0
2022-10-31T01:44:06.136Z,0
2022-10-31T01:45:06.732Z,0
2022-10-31T01:46:07.332Z,0
2022-10-31T01:47:07.926Z,0
2022-10-31T01:48:08.528Z,0
2022-10-31T01:49:09.121Z,0
2022-10-31T01:50:09.719Z,0
2022-10-31T01:51:10.316Z,0
2022-10-31T01:52:10.917Z,0
2022-10-31T01:53:11.512Z,0
2022-10-31T01:54:12.112Z,0
2022-10-31T01:55:12.708Z,0
2022-10-31T01:56:13.308Z,0
2022-10-31T01:57:13.906Z,0
2022-10-31T01:58:14.613Z,0
2022-10-31T01:59:15.154Z,0
2022-10-31T02:00:15.755Z,0
2022-10-31T02:01:16.457Z,0
2022-10-31T02:02:17.301Z,0
2022-10-31T02:03:17.966Z,0
2022-10-31T02:04:18.564Z,0
2022-10-31T02:05:19.162Z,0
2022-10-31T02:06:19.760Z,0
2022-10-31T02:07:20.357Z,0
2022-10-31T02:08:20.959Z,0
2022-10-31T02:09:21.554Z,0
2022-10-31T02:10:22.154Z,0
2022-10-31T02:11:22.751Z,0
2022-10-31T02:12:23.349Z,0
2022-10-31T02:14:24.554Z,0
2022-10-31T02:15:25.150Z,0
2022-10-31T02:16:25.748Z,0
2022-10-31T02:17:26.344Z,0
2022-10-31T02:18:26.944Z,0
2022-10-31T02:19:27.540Z,0
2022-10-31T02:20:28.138Z,0
2022-10-31T02:21:28.734Z,0
2022-10-31T02:22:29.333Z,0
2022-10-31T02:23:29.932Z,0
2022-10-31T02:24:30.531Z,0
2022-10-31T02:25:31.129Z,0
2022-10-31T02:26:31.730Z,0
2022-10-31T02:27:32.324Z,0
2022-10-31T02:28:32.926Z,0
2022-10-31T02:29:33.522Z,0
2022-10-31T02:30:34.121Z,0
2022-10-31T02:31:34.739Z,0
2022-10-31T02:32:35.338Z,0
2022-10-31T02:33:35.935Z,0
2022-10-31T02:34:36.535Z,0
2022-10-31T02:35:37.131Z,0
2022-10-31T02:36:37.730Z,0
2022-10-31T02:37:38.328Z,0
2022-10-31T02:38:38.928Z,0
2022-10-31T02:39:39.526Z,0
2022-10-31T02:40:40.125Z,0
2022-10-31T02:41:40.723Z,0
2022-10-31T02:42:41.321Z,0
2022-10-31T02:43:41.920Z,0
2022-10-31T02:44:42.517Z,0
2022-10-31T02:45:43.114Z,0
2022-10-31T02:46:43.713Z,0
2022-10-31T02:47:44.312Z,0
2022-10-31T02:48:44.909Z,0
2022-10-31T02:49:45.508Z,0
2022-10-31T02:50:46.107Z,0
2022-10-31T02:51:46.707Z,0
2022-10-31T02:52:47.305Z,0
2022-10-31T02:53:47.902Z,0
2022-10-31T02:54:48.502Z,0
2022-10-31T02:55:49.099Z,0
2022-10-31T02:56:49.696Z,0
2022-10-31T02:57:50.294Z,0
2022-10-31T02:58:50.893Z,0
2022-10-31T02:59:51.492Z,0
2022-10-31T03:00:52.315Z,0
2022-10-31T03:01:53.111Z,0
2022-10-31T03:02:53.708Z,0
2022-10-31T03:03:54.305Z,0
2022-10-31T03:04:54.903Z,0
2022-10-31T03:05:55.505Z,0
2022-10-31T03:06:56.100Z,0
2022-10-31T03:07:56.705Z,0
2022-10-31T03:08:57.296Z,0
2022-10-31T03:09:57.896Z,0
2022-10-31T03:10:58.492Z,0
2022-10-31T03:11:59.090Z,0
2022-10-31T03:12:59.767Z,0
2022-10-31T03:14:00.396Z,0
2022-10-31T03:15:00.997Z,0
2022-10-31T03:16:01.594Z,0
2022-10-31T03:17:02.192Z,0
2022-10-31T03:18:03.275Z,0
2022-10-31T03:19:04.075Z,0
2022-10-31T03:20:04.672Z,0
2022-10-31T03:21:05.409Z,0
2022-10-31T03:22:05.952Z,0
2022-10-31T03:23:06.551Z,0
2022-10-31T03:24:07.146Z,0
2022-10-31T03:25:07.746Z,0
2022-10-31T03:26:08.345Z,0
2022-10-31T03:27:08.941Z,0
2022-10-31T03:28:09.570Z,0
2022-10-31T03:29:10.139Z,0
2022-10-31T03:30:10.733Z,0
2022-10-31T03:31:11.333Z,0
2022-10-31T03:32:11.931Z,0
2022-10-31T03:33:12.529Z,0
2022-10-31T03:34:13.126Z,0
2022-10-31T03:35:13.724Z,0
2022-10-31T03:36:14.322Z,0
2022-10-31T03:37:14.920Z,0
2022-10-31T03:38:15.519Z,0
2022-10-31T03:39:16.134Z,0
2022-10-31T03:40:16.729Z,0
2022-10-31T03:41:17.326Z,0
2022-10-31T03:42:17.922Z,0
2022-10-31T03:43:18.580Z,0
2022-10-31T03:44:19.172Z,0
2022-10-31T03:45:19.769Z,0
2022-10-31T03:46:20.367Z,0
2022-10-31T03:47:20.965Z,0
2022-10-31T03:48:21.561Z,0
2022-10-31T03:49:22.160Z,0
2022-10-31T03:50:22.758Z,0
2022-10-31T03:51:23.353Z,0
2022-10-31T03:52:23.949Z,0
2022-10-31T03:53:24.546Z,0
2022-10-31T03:54:25.143Z,0
2022-10-31T03:55:25.742Z,0
2022-10-31T03:56:26.339Z,0
2022-10-31T03:57:26.936Z,0
2022-10-31T03:58:27.537Z,0
2022-10-31T03:59:28.132Z,0
2022-10-31T04:00:28.755Z,0
2022-10-31T04:01:29.459Z,0
2022-10-31T04:02:30.197Z,0
2022-10-31T04:03:30.811Z,0
2022-10-31T04:04:31.407Z,0
2022-10-31T04:05:32.005Z,0
2022-10-31T04:06:32.599Z,0
2022-10-31T04:07:33.196Z,0
2022-10-31T04:08:33.793Z,0
2022-10-31T04:09:34.391Z,0
2022-10-31T04:10:34.992Z,0
2022-10-31T04:11:35.592Z,0
2022-10-31T04:12:36.205Z,0
2022-10-31T04:13:36.803Z,0
2022-10-31T04:14:37.401Z,0
2022-10-31T04:15:38.007Z,0
2022-10-31T04:16:38.598Z,0
2022-10-31T04:17:39.196Z,0
2022-10-31T04:18:39.813Z,0
2022-10-31T04:19:40.413Z,0
2022-10-31T04:20:41.010Z,0
2022-10-31T04:21:41.608Z,0
2022-10-31T04:22:42.323Z,0
2022-10-31T04:23:42.852Z,0
2022-10-31T04:24:43.450Z,0
2022-10-31T04:25:44.048Z,0
2022-10-31T04:26:44.650Z,0
2022-10-31T04:27:45.245Z,0
2022-10-31T04:28:45.846Z,0
2022-10-31T04:29:48.339Z,0
2022-10-31T04:30:48.033Z,0
2022-10-31T04:31:48.650Z,0
2022-10-31T04:32:49.246Z,0
2022-10-31T04:33:49.846Z,0
2022-10-31T04:34:50.447Z,0
2022-10-31T04:35:51.041Z,0
2022-10-31T04:36:51.640Z,0
2022-10-31T04:37:52.237Z,0
2022-10-31T04:38:52.834Z,0
2022-10-31T04:39:53.433Z,0
2022-10-31T04:40:54.029Z,0
2022-10-31T04:41:54.628Z,0
2022-10-31T04:42:55.224Z,0
2022-10-31T04:43:55.823Z,0
2022-10-31T04:44:56.418Z,0
2022-10-31T04:45:57.018Z,0
2022-10-31T04:46:57.612Z,0
2022-10-31T04:47:58.648Z,0
2022-10-31T04:48:59.420Z,0
2022-10-31T04:50:00.016Z,0
2022-10-31T04:51:00.614Z,0
2022-10-31T04:52:01.212Z,0
2022-10-31T04:53:01.812Z,0
2022-10-31T04:54:02.412Z,0
2022-10-31T04:55:03.020Z,0
2022-10-31T04:56:03.610Z,0
2022-10-31T04:57:04.206Z,0
2022-10-31T04:58:05.350Z,0
2022-10-31T04:59:06.324Z,0
2022-10-31T05:00:06.921Z,0
2022-10-31T05:01:07.590Z,0
2022-10-31T05:02:08.309Z,0
2022-10-31T05:03:08.813Z,0
2022-10-31T05:04:09.411Z,0
2022-10-31T05:05:10.008Z,0
2022-10-31T05:06:10.606Z,0
2022-10-31T05:07:11.199Z,0
2022-10-31T05:08:11.797Z,0
2022-10-31T05:09:12.393Z,0
2022-10-31T05:10:12.992Z,0
2022-10-31T05:11:13.589Z,0
2022-10-31T05:12:14.189Z,0
2022-10-31T05:13:14.809Z,0
2022-10-31T05:14:15.384Z,0
2022-10-31T05:15:15.983Z,0
2022-10-31T05:16:16.584Z,0
2022-10-31T05:17:17.198Z,0
2022-10-31T05:18:17.778Z,0
2022-10-31T05:19:18.374Z,0
2022-10-31T05:20:18.973Z,0
2022-10-31T05:21:19.570Z,0
2022-10-31T05:22:20.170Z,0
2022-10-31T05:23:20.765Z,0
2022-10-31T05:24:21.367Z,0
2022-10-31T05:25:21.962Z,0
2022-10-31T05:26:22.564Z,0
2022-10-31T05:27:23.159Z,0
2022-10-31T05:28:23.759Z,0
2022-10-31T05:29:24.356Z,0
2022-10-31T05:30:24.956Z,0
2022-10-31T05:31:25.552Z,0
2022-10-31T05:32:26.170Z,0
2022-10-31T05:33:26.770Z,0
2022-10-31T05:34:27.368Z,0
2022-10-31T05:35:27.986Z,0
2022-10-31T05:36:28.591Z,0
2022-10-31T05:37:29.184Z,0
2022-10-31T05:38:29.784Z,0
2022-10-31T05:39:30.383Z,4
2022-10-31T05:40:30.982Z,4
2022-10-31T05:41:31.580Z,0
2022-10-31T05:42:32.178Z,4
2022-10-31T05:43:32.775Z,4
2022-10-31T05:44:33.375Z,4
2022-10-31T05:45:33.972Z,4
2022-10-31T05:47:35.193Z,8
2022-10-31T05:48:35.793Z,12
2022-10-31T05:49:36.418Z,12
2022-10-31T05:50:37.015Z,12
2022-10-31T05:51:37.611Z,16
2022-10-31T05:52:38.210Z,16
2022-10-31T05:53:38.812Z,20
2022-10-31T05:54:39.411Z,24
2022-10-31T05:55:40.013Z,28
2022-10-31T05:56:40.613Z,40
2022-10-31T05:57:41.217Z,44
2022-10-31T05:58:41.813Z,52
2022-10-31T05:59:42.413Z,60
2022-10-31T06:00:43.011Z,72
2022-10-31T06:01:43.752Z,84
2022-10-31T06:02:44.373Z,96
2022-10-31T06:03:45.054Z,112
2022-10-31T06:04:45.707Z,128
2022-10-31T06:05:50.523Z,148
2022-10-31T06:06:47.854Z,172
2022-10-31T06:07:48.454Z,200
2022-10-31T06:08:49.056Z,232
2022-10-31T06:09:49.658Z,268
2022-10-31T06:10:50.259Z,304
2022-10-31T06:11:50.861Z,332
2022-10-31T06:12:51.463Z,368
2022-10-31T06:13:52.064Z,396
2022-10-31T06:14:52.667Z,436
2022-10-31T06:15:53.266Z,476
2022-10-31T06:16:53.867Z,520
2022-10-31T06:17:54.487Z,568
2022-10-31T06:18:55.091Z,612
2022-10-31T06:19:55.696Z,656
2022-10-31T06:20:56.292Z,704
2022-10-31T06:21:56.898Z,752
2022-10-31T06:22:57.816Z,804
2022-10-31T06:23:58.111Z,860
2022-10-31T06:24:58.711Z,920
2022-10-31T06:25:59.312Z,984
2022-10-31T06:26:59.914Z,1040
2022-10-31T06:28:00.517Z,1128
2022-10-31T06:29:04.057Z,1228
2022-10-31T06:30:02.716Z,1304
2022-10-31T06:31:03.316Z,1404
2022-10-31T06:32:03.918Z,1484
2022-10-31T06:33:04.529Z,1568
2022-10-31T06:34:05.121Z,1640
2022-10-31T06:35:05.721Z,1732
2022-10-31T06:36:06.327Z,1828
2022-10-31T06:37:06.927Z,1924
2022-10-31T06:38:07.544Z,2028
2022-10-31T06:39:08.131Z,2128
2022-10-31T06:40:08.735Z,2224
2022-10-31T06:41:09.339Z,2312
2022-10-31T06:42:09.939Z,2412
2022-10-31T06:43:10.543Z,2504
2022-10-31T06:44:11.165Z,2592
2022-10-31T06:45:11.769Z,2672
2022-10-31T06:46:12.392Z,2740
2022-10-31T06:47:12.993Z,2792
2022-10-31T06:48:18.215Z,2840
2022-10-31T06:49:15.194Z,2892
2022-10-31T06:50:16.185Z,2964
2022-10-31T06:51:16.705Z,3048
2022-10-31T06:52:17.305Z,3148
2022-10-31T06:53:17.911Z,3252
2022-10-31T06:54:18.533Z,3364
2022-10-31T06:55:19.132Z,3472
2022-10-31T06:56:19.736Z,3580
2022-10-31T06:57:20.340Z,3684
2022-10-31T06:58:20.944Z,3832
2022-10-31T06:59:21.547Z,3976
2022-10-31T07:00:22.151Z,4160
2022-10-31T07:01:22.894Z,4348
2022-10-31T07:02:23.627Z,4540
2022-10-31T07:03:24.219Z,4772
2022-10-31T07:04:24.830Z,5020
2022-10-31T07:05:25.431Z,5228
2022-10-31T07:06:26.033Z,5336
2022-10-31T07:07:26.655Z,5444
2022-10-31T07:08:27.259Z,5596
2022-10-31T07:09:27.862Z,5756
2022-10-31T07:10:28.604Z,5844
2022-10-31T07:11:29.087Z,5932
2022-10-31T07:12:29.690Z,5996
2022-10-31T07:13:30.292Z,6152
2022-10-31T07:14:30.898Z,6552
2022-10-31T07:15:31.499Z,6772
2022-10-31T07:16:32.106Z,7024
2022-10-31T07:17:32.709Z,7268
2022-10-31T07:18:33.313Z,7372
2022-10-31T07:19:33.936Z,7448
2022-10-31T07:20:34.540Z,7820
2022-10-31T07:21:35.147Z,8044
2022-10-31T07:22:35.768Z,8236
2022-10-31T07:23:36.370Z,8264
2022-10-31T07:24:36.975Z,8164
2022-10-31T07:25:37.582Z,8316
2022-10-31T07:26:38.185Z,8504
2022-10-31T07:27:41.719Z,8900
2022-10-31T07:28:39.403Z,9400
2022-10-31T07:29:40.006Z,9992
2022-10-31T07:30:40.624Z,10248
2022-10-31T07:31:41.219Z,10484
2022-10-31T07:32:41.823Z,10580
2022-10-31T07:33:42.430Z,11000
2022-10-31T07:34:46.627Z,11108
2022-10-31T07:35:43.654Z,11132
2022-10-31T07:36:44.259Z,11160
2022-10-31T07:37:44.863Z,11196
2022-10-31T07:38:45.470Z,11392
2022-10-31T07:39:46.074Z,11544
2022-10-31T07:40:46.684Z,11684
2022-10-31T07:41:47.305Z,11812
2022-10-31T07:42:47.910Z,12340
2022-10-31T07:43:48.582Z,12572
2022-10-31T07:44:51.471Z,12748
2022-10-31T07:45:50.733Z,13116
2022-10-31T07:46:51.339Z,13668
2022-10-31T07:47:51.964Z,13996
2022-10-31T07:48:52.567Z,14284
2022-10-31T07:49:53.173Z,14576
2022-10-31T07:50:53.780Z,15092
2022-10-31T07:51:54.381Z,15124
2022-10-31T07:52:54.987Z,15700
2022-10-31T07:53:55.590Z,16544
2022-10-31T07:54:56.214Z,17600
2022-10-31T07:55:56.816Z,17984
2022-10-31T07:56:57.428Z,18208
2022-10-31T07:57:58.391Z,17856
2022-10-31T07:58:58.664Z,18432
2022-10-31T07:59:59.300Z,18688
2022-10-31T08:01:00.003Z,18624
2022-10-31T08:02:00.647Z,18688
2022-10-31T08:03:01.542Z,19232
2022-10-31T08:04:01.869Z,19648
2022-10-31T08:05:02.476Z,19872
2022-10-31T08:06:03.073Z,20416
2022-10-31T08:07:03.678Z,21440
2022-10-31T08:08:04.492Z,22240
2022-10-31T08:09:05.122Z,23200
2022-10-31T08:10:05.729Z,23104
2022-10-31T08:11:06.332Z,22656
2022-10-31T08:12:06.937Z,23488
2022-10-31T08:13:07.535Z,23808
2022-10-31T08:14:08.137Z,24000
2022-10-31T08:15:08.758Z,24224
2022-10-31T08:16:09.363Z,24096
2022-10-31T08:17:09.966Z,24608
2022-10-31T08:18:10.568Z,24832
2022-10-31T08:19:11.191Z,25440
2022-10-31T08:20:11.811Z,23200
2022-10-31T08:21:12.415Z,22464
2022-10-31T08:22:13.023Z,22368
2022-10-31T08:23:13.627Z,22816
2022-10-31T08:24:14.226Z,23584
2022-10-31T08:25:14.835Z,22720
2022-10-31T08:26:15.434Z,25056
2022-10-31T08:27:16.036Z,23232
2022-10-31T08:28:16.636Z,24160
2022-10-31T08:29:17.237Z,24192
2022-10-31T08:30:17.838Z,23680
2022-10-31T08:31:18.441Z,22880
2022-10-31T08:32:19.044Z,22432
2022-10-31T08:33:19.655Z,20896
2022-10-31T08:34:20.249Z,20416
2022-10-31T08:35:20.851Z,22144
2022-10-31T08:36:21.453Z,23680
2022-10-31T08:37:22.056Z,23776
2022-10-31T08:38:22.658Z,23616
2022-10-31T08:39:23.262Z,21568
2022-10-31T08:40:23.920Z,23104
2022-10-31T08:41:24.480Z,22496
2022-10-31T08:42:25.099Z,22112
2022-10-31T08:43:25.700Z,21408
2022-10-31T08:44:26.305Z,20608
2022-10-31T08:45:26.910Z,19296
2022-10-31T08:46:27.512Z,18528
2022-10-31T08:47:28.114Z,18944
2022-10-31T08:48:28.716Z,19424
2022-10-31T08:49:29.318Z,18688
2022-10-31T08:50:29.921Z,17472
2022-10-31T08:51:30.523Z,17376
2022-10-31T08:52:58.798Z,17536
2022-10-31T08:53:32.727Z,17568
2022-10-31T08:54:33.344Z,16876
2022-10-31T08:55:33.947Z,16056
2022-10-31T08:56:34.551Z,15336
2022-10-31T08:57:35.163Z,14768
2022-10-31T08:58:40.038Z,14728
2022-10-31T08:59:37.353Z,14836
2022-10-31T09:00:38.046Z,14584
2022-10-31T09:01:38.751Z,14296
2022-10-31T09:02:39.330Z,13868
2022-10-31T09:03:39.933Z,13604
2022-10-31T09:04:40.534Z,13768
2022-10-31T09:05:41.177Z,13572
2022-10-31T09:06:50.401Z,13452
2022-10-31T09:07:43.361Z,13392
2022-10-31T09:08:43.959Z,13252
2022-10-31T09:09:44.563Z,13208
2022-10-31T09:10:45.170Z,13364
2022-10-31T09:11:45.769Z,13668
2022-10-31T09:12:46.371Z,13832
2022-10-31T09:13:46.974Z,14108
2022-10-31T09:14:47.579Z,14368
2022-10-31T09:15:48.196Z,14708
2022-10-31T09:16:48.784Z,15536
2022-10-31T09:17:49.395Z,16112
2022-10-31T09:18:49.986Z,16356
2022-10-31T09:19:50.591Z,15748
2022-10-31T09:20:51.194Z,16212
2022-10-31T09:21:51.797Z,17272
2022-10-31T09:22:52.400Z,19424
2022-10-31T09:23:53.000Z,19488
2022-10-31T09:24:53.602Z,21664
2022-10-31T09:25:54.208Z,19808
2022-10-31T09:26:54.807Z,24896
2022-10-31T09:27:55.412Z,26432
2022-10-31T09:28:56.017Z,26144
2022-10-31T09:29:56.618Z,26816
2022-10-31T09:30:57.220Z,26144
2022-10-31T09:31:57.823Z,26240
2022-10-31T09:32:58.444Z,26912
2022-10-31T09:33:59.052Z,27808
2022-10-31T09:34:59.678Z,26976
2022-10-31T09:36:00.255Z,27680
2022-10-31T09:37:00.877Z,27712
2022-10-31T09:38:01.889Z,28864
2022-10-31T09:39:02.695Z,32032
2022-10-31T09:40:03.297Z,34688
2022-10-31T09:41:03.900Z,35424
2022-10-31T09:42:04.505Z,30144
2022-10-31T09:43:05.107Z,27424
2022-10-31T09:44:05.711Z,35744
2022-10-31T09:45:06.314Z,35936
2022-10-31T09:46:06.919Z,36800
2022-10-31T09:47:07.523Z,35520
2022-10-31T09:48:08.126Z,30016
2022-10-31T09:49:08.775Z,25280
2022-10-31T09:50:09.356Z,24544
2022-10-31T09:51:09.960Z,26624
2022-10-31T09:53:11.169Z,25376
2022-10-31T09:54:11.775Z,24704
2022-10-31T09:55:12.376Z,23968
2022-10-31T09:56:12.975Z,23520
2022-10-31T09:57:13.577Z,23136
2022-10-31T09:58:14.202Z,23232
2022-10-31T09:59:14.803Z,23392
2022-10-31T10:00:15.409Z,24416
2022-10-31T10:01:16.121Z,26048
2022-10-31T10:02:16.790Z,27648
2022-10-31T10:03:17.417Z,27232
2022-10-31T10:04:20.764Z,26048
2022-10-31T10:05:19.615Z,26496
2022-10-31T10:06:20.237Z,27296
2022-10-31T10:07:20.861Z,28288
2022-10-31T10:08:21.467Z,28480
2022-10-31T10:10:22.676Z,26208
2022-10-31T10:11:23.290Z,27168
2022-10-31T10:12:23.902Z,26624
2022-10-31T10:13:24.504Z,26528
2022-10-31T10:14:25.107Z,26688
2022-10-31T10:15:25.708Z,26272
2022-10-31T10:16:26.311Z,28256
2022-10-31T10:17:26.915Z,29664
2022-10-31T10:18:27.520Z,28512
2022-10-31T10:19:28.144Z,27744
2022-10-31T10:20:28.745Z,26528
2022-10-31T10:21:29.351Z,25728
2022-10-31T10:22:29.960Z,28288
2022-10-31T10:23:30.558Z,28672
2022-10-31T10:24:31.161Z,30272
2022-10-31T10:25:31.765Z,30016
2022-10-31T10:27:32.974Z,25696
2022-10-31T10:28:33.576Z,26304
2022-10-31T10:29:34.190Z,26976
2022-10-31T10:30:34.803Z,26592
2022-10-31T10:31:35.409Z,27584
2022-10-31T10:32:36.011Z,28736
2022-10-31T10:33:36.617Z,32224
2022-10-31T10:34:37.220Z,34336
2022-10-31T10:35:37.824Z,37760
2022-10-31T10:36:38.970Z,40864
2022-10-31T10:37:39.575Z,30816
2022-10-31T10:38:40.177Z,32736
2022-10-31T10:39:40.781Z,31072
2022-10-31T10:40:41.442Z,32576
2022-10-31T10:41:42.007Z,30176
2022-10-31T10:42:42.609Z,29568
2022-10-31T10:43:43.251Z,29376
2022-10-31T10:44:43.822Z,29440
2022-10-31T10:45:44.423Z,30304
2022-10-31T10:46:45.027Z,30752
2022-10-31T10:47:45.650Z,36672
2022-10-31T10:48:46.431Z,38944
2022-10-31T10:49:47.003Z,43872
2022-10-31T10:50:47.607Z,43264
2022-10-31T10:52:13.252Z,42208
2022-10-31T10:52:51.114Z,44512
2022-10-31T10:53:51.406Z,48960
2022-10-31T10:54:52.005Z,52000
2022-10-31T10:55:52.611Z,48800
2022-10-31T10:56:53.225Z,45408
2022-10-31T10:57:53.838Z,38944
2022-10-31T10:58:54.442Z,44160
2022-10-31T10:59:55.047Z,48480
2022-10-31T11:00:55.772Z,50400
2022-10-31T11:01:56.378Z,46624
2022-10-31T11:02:56.992Z,44608
2022-10-31T11:03:57.599Z,44672
2022-10-31T11:04:58.219Z,44576
2022-10-31T11:05:58.822Z,42944
2022-10-31T11:06:59.424Z,42240
2022-10-31T11:08:00.029Z,37344
2022-10-31T11:09:00.631Z,34304
2022-10-31T11:10:01.234Z,32032
2022-10-31T11:11:01.847Z,30752
2022-10-31T11:12:02.442Z,30816
2022-10-31T11:13:03.443Z,30400
2022-10-31T11:14:04.232Z,29376
2022-10-31T11:15:04.836Z,29504
2022-10-31T11:16:05.463Z,30400
2022-10-31T11:17:06.061Z,31072
2022-10-31T11:18:06.693Z,32384
2022-10-31T11:19:07.287Z,32096
2022-10-31T11:20:07.892Z,32640
2022-10-31T11:21:08.494Z,32160
2022-10-31T11:22:09.486Z,32096
2022-10-31T11:23:10.391Z,32192
2022-10-31T11:24:10.709Z,31616
2022-10-31T11:25:11.332Z,31936
2022-10-31T11:26:11.938Z,34688
2022-10-31T11:27:12.537Z,39040
2022-10-31T11:28:13.141Z,38496
2022-10-31T11:29:13.743Z,36224
2022-10-31T11:30:14.349Z,38304
2022-10-31T11:31:14.957Z,36800
2022-10-31T11:32:15.555Z,37952
2022-10-31T11:33:16.159Z,38592
2022-10-31T11:34:16.764Z,41568
2022-10-31T11:35:17.369Z,45824
2022-10-31T11:36:17.968Z,50528
2022-10-31T11:37:18.575Z,51488
2022-10-31T11:38:19.176Z,45152
2022-10-31T11:39:19.777Z,40544
2022-10-31T11:40:20.381Z,39040
2022-10-31T11:41:21.005Z,36640
2022-10-31T11:42:21.631Z,35136
2022-10-31T11:43:22.232Z,32768
2022-10-31T11:44:22.835Z,30944
2022-10-31T11:45:23.440Z,30208
2022-10-31T11:46:24.046Z,29376
2022-10-31T11:47:24.648Z,27424
2022-10-31T11:48:25.257Z,26048
2022-10-31T11:49:25.857Z,24928
2022-10-31T11:50:26.461Z,24320
2022-10-31T11:51:27.082Z,24000
2022-10-31T11:52:27.728Z,23744
2022-10-31T11:53:28.330Z,23712
2022-10-31T11:54:28.931Z,23936
2022-10-31T11:55:29.537Z,24384
2022-10-31T11:56:30.139Z,24896
2022-10-31T11:57:30.744Z,25408
2022-10-31T11:58:31.341Z,26112
2022-10-31T11:59:31.944Z,27072
2022-10-31T12:00:32.567Z,29696
2022-10-31T12:01:33.496Z,31904
2022-10-31T12:02:34.284Z,31840
2022-10-31T12:03:34.842Z,30304
2022-10-31T12:04:35.463Z,30208
2022-10-31T12:05:36.067Z,29056
2022-10-31T12:06:36.673Z,28064
2022-10-31T12:07:37.292Z,27584
2022-10-31T12:08:37.896Z,27136
2022-10-31T12:09:38.497Z,26336
2022-10-31T12:10:39.102Z,25568
2022-10-31T12:11:39.702Z,24928
2022-10-31T12:12:40.305Z,24160
2022-10-31T12:13:40.908Z,23904
2022-10-31T12:14:41.512Z,24480
2022-10-31T12:15:42.111Z,25856
2022-10-31T12:16:42.720Z,25408
2022-10-31T12:17:43.316Z,25152
2022-10-31T12:18:43.935Z,25344
2022-10-31T12:19:44.588Z,25344
2022-10-31T12:20:45.194Z,25536
2022-10-31T12:21:45.817Z,24992
2022-10-31T12:22:46.421Z,24800
2022-10-31T12:23:47.020Z,24544
2022-10-31T12:24:47.622Z,24064
2022-10-31T12:25:48.223Z,23776
2022-10-31T12:26:48.827Z,23616
2022-10-31T12:27:49.430Z,23488
2022-10-31T12:28:55.192Z,23200
2022-10-31T12:29:51.628Z,23456
2022-10-31T12:30:52.234Z,24256
2022-10-31T12:31:52.832Z,25024
2022-10-31T12:32:53.434Z,25984
2022-10-31T12:33:54.036Z,27168
2022-10-31T12:34:54.643Z,29632
2022-10-31T12:35:55.247Z,31264
2022-10-31T12:36:55.869Z,31968
2022-10-31T12:37:56.471Z,32064
2022-10-31T12:38:57.077Z,34336
2022-10-31T12:39:57.677Z,34496
2022-10-31T12:40:58.281Z,33600
2022-10-31T12:41:58.885Z,33728
2022-10-31T12:42:59.803Z,33664
2022-10-31T12:44:00.131Z,33184
2022-10-31T12:45:00.741Z,33376
2022-10-31T12:46:01.356Z,33696
2022-10-31T12:47:01.959Z,33376
2022-10-31T12:48:02.563Z,27712
2022-10-31T12:49:03.167Z,25504
2022-10-31T12:50:03.770Z,27424
2022-10-31T12:51:04.370Z,26656
2022-10-31T12:52:04.973Z,25344
2022-10-31T12:53:05.654Z,23712
2022-10-31T12:54:06.205Z,23456
2022-10-31T12:55:06.810Z,23296
2022-10-31T12:56:07.410Z,22656
2022-10-31T12:57:08.017Z,21888
2022-10-31T12:58:08.616Z,21312
2022-10-31T12:59:09.421Z,21120
2022-10-31T13:00:10.023Z,21696
2022-10-31T13:01:10.771Z,23232
2022-10-31T13:02:11.491Z,25728
2022-10-31T13:03:12.099Z,27840
2022-10-31T13:04:12.701Z,25952
2022-10-31T13:05:13.301Z,23520
2022-10-31T13:06:13.902Z,21984
2022-10-31T13:07:14.510Z,21472
2022-10-31T13:08:15.106Z,21216
2022-10-31T13:09:15.711Z,21024
2022-10-31T13:10:16.314Z,20992
2022-10-31T13:11:16.934Z,21024
2022-10-31T13:12:17.557Z,21120
2022-10-31T13:13:18.160Z,21504
2022-10-31T13:14:18.762Z,21824
2022-10-31T13:15:19.366Z,22304
2022-10-31T13:16:19.968Z,22752
2022-10-31T13:17:20.571Z,24064
2022-10-31T13:18:21.195Z,26400
2022-10-31T13:19:21.799Z,30208
2022-10-31T13:20:22.404Z,31520
2022-10-31T13:21:23.019Z,31680
2022-10-31T13:22:23.632Z,30912
2022-10-31T13:23:49.302Z,34208
2022-10-31T13:24:25.832Z,35712
2022-10-31T13:25:26.440Z,35008
2022-10-31T13:26:27.044Z,31808
2022-10-31T13:27:27.653Z,28736
2022-10-31T13:28:28.268Z,26144
2022-10-31T13:29:31.737Z,25024
2022-10-31T13:30:30.467Z,24384
2022-10-31T13:31:31.071Z,23424
2022-10-31T13:32:31.674Z,21888
2022-10-31T13:33:32.276Z,21312
2022-10-31T13:34:32.877Z,21088
2022-10-31T13:35:33.481Z,21600
2022-10-31T13:36:34.105Z,21984
2022-10-31T13:37:34.810Z,21504
2022-10-31T13:38:35.435Z,20864
2022-10-31T13:39:36.036Z,20352
2022-10-31T13:40:36.637Z,19744
2022-10-31T13:41:37.242Z,19264
2022-10-31T13:42:37.842Z,18944
2022-10-31T13:43:38.464Z,18784
2022-10-31T13:44:39.068Z,18432
2022-10-31T13:45:39.671Z,18368
2022-10-31T13:46:40.318Z,18144
2022-10-31T13:47:40.903Z,17952
2022-10-31T13:48:41.504Z,19008
2022-10-31T13:49:42.106Z,17664
2022-10-31T13:50:42.706Z,17664
2022-10-31T13:51:43.309Z,18112
2022-10-31T13:52:43.912Z,18944
2022-10-31T13:53:44.521Z,18368
2022-10-31T13:54:45.113Z,18400
2022-10-31T13:55:45.717Z,19072